createdAt,value
2022-08-08T00:00:53.802Z,2.17
2022-08-08T00:02:39.243Z,2.40
2022-08-08T00:05:19.499Z,1.80
2022-08-08T00:07:58.207Z,2.20
2022-08-08T00:10:34.678Z,2.47
2022-08-08T00:13:10.821Z,2.30
2022-08-08T00:15:58.380Z,2.30
2022-08-08T00:18:36.637Z,2.23
2022-08-08T00:21:07.848Z,2.37
2022-08-08T00:23:47.894Z,2.00
2022-08-08T00:26:29.606Z,2.20
2022-08-08T00:29:08.107Z,2.17
2022-08-08T00:32:29.213Z,2.20
2022-08-08T00:35:06.857Z,2.00
2022-08-08T00:37:48.248Z,2.40
2022-08-08T00:41:09.361Z,2.20
2022-08-08T00:44:00.819Z,2.20
2022-08-08T00:46:57.992Z,2.50
2022-08-08T00:49:59.747Z,2.00
2022-08-08T00:52:48.409Z,2.67
2022-08-08T00:55:35.963Z,2.23
2022-08-08T00:59:07.394Z,2.60
2022-08-08T01:01:41.460Z,2.50
2022-08-08T01:04:56.400Z,2.60
2022-08-08T01:07:57.041Z,2.60
2022-08-08T01:11:10.652Z,2.37
2022-08-08T01:14:13.682Z,3.10
2022-08-08T01:17:10.343Z,3.13
2022-08-08T01:20:24.803Z,2.83
2022-08-08T01:24:05.726Z,3.37
2022-08-08T01:26:54.345Z,2.53
2022-08-08T01:29:59.787Z,2.87
2022-08-08T01:33:16.269Z,3.73
2022-08-08T01:36:18.952Z,3.07
2022-08-08T01:39:23.517Z,2.80
2022-08-08T01:41:59.901Z,2.90
2022-08-08T01:44:41.736Z,2.87
2022-08-08T01:48:03.652Z,3.27
2022-08-08T01:50:26.047Z,3.60
2022-08-08T01:54:04.319Z,3.40
2022-08-08T01:56:09.226Z,3.60
2022-08-08T01:59:09.449Z,3.40
2022-08-08T02:02:00.629Z,3.57
2022-08-08T02:04:38.102Z,3.60
2022-08-08T02:07:17.922Z,3.17
2022-08-08T02:10:04.164Z,3.40
2022-08-08T02:12:52.094Z,3.30
2022-08-08T02:15:30.711Z,3.60
2022-08-08T02:18:10.868Z,3.40
2022-08-08T02:21:13.245Z,3.80
2022-08-08T02:23:46.997Z,3.40
2022-08-08T02:26:23.318Z,3.10
2022-08-08T02:29:05.665Z,3.30
2022-08-08T02:32:04.728Z,3.23
2022-08-08T02:35:11.978Z,3.60
2022-08-08T02:37:56.853Z,3.90
2022-08-08T02:40:39.402Z,3.33
2022-08-08T02:44:43.140Z,3.73
2022-08-08T02:46:47.338Z,3.77
2022-08-08T02:49:51.683Z,4.40
2022-08-08T02:52:50.328Z,3.73
2022-08-08T02:55:57.697Z,4.67
2022-08-08T02:59:37.112Z,5.03
2022-08-08T03:02:50.255Z,5.03
2022-08-08T03:05:55.746Z,4.20
2022-08-08T03:09:13.063Z,4.50
2022-08-08T03:12:15.308Z,4.70
2022-08-08T03:16:01.028Z,4.23
2022-08-08T03:17:59.932Z,4.80
2022-08-08T03:20:51.160Z,4.00
2022-08-08T03:23:23.528Z,4.10
2022-08-08T03:25:52.794Z,5.00
2022-08-08T03:28:28.773Z,4.60
2022-08-08T03:31:22.578Z,4.73
2022-08-08T03:33:56.042Z,4.50
2022-08-08T03:36:30.171Z,4.83
2022-08-08T03:39:14.520Z,4.87
2022-08-08T03:42:28.446Z,4.23
2022-08-08T03:44:34.714Z,4.13
2022-08-08T03:47:13.934Z,4.17
2022-08-08T03:50:00.564Z,4.90
2022-08-08T03:52:32.057Z,4.17
2022-08-08T03:55:19.725Z,4.30
2022-08-08T03:58:34.173Z,5.00
2022-08-08T04:00:56.946Z,4.23
2022-08-08T04:03:57.996Z,4.60
2022-08-08T04:06:29.223Z,4.37
2022-08-08T04:08:58.798Z,4.80
2022-08-08T04:11:57.952Z,4.53
2022-08-08T04:14:33.470Z,4.30
2022-08-08T04:17:04.168Z,4.70
2022-08-08T04:19:36.629Z,4.43
2022-08-08T04:22:05.683Z,4.83
2022-08-08T04:24:34.901Z,4.73
2022-08-08T04:27:10.552Z,4.90
2022-08-08T04:29:55.319Z,4.77
2022-08-08T04:32:30.540Z,4.97
2022-08-08T04:35:02.116Z,4.77
2022-08-08T04:37:32.283Z,5.07
2022-08-08T04:40:07.069Z,5.20
2022-08-08T04:42:46.561Z,5.43
2022-08-08T04:45:25.544Z,5.33
2022-08-08T04:47:54.557Z,5.13
2022-08-08T04:50:24.675Z,5.63
2022-08-08T04:52:58.624Z,5.80
2022-08-08T04:55:47.747Z,5.03
2022-08-08T04:58:19.457Z,4.93
2022-08-08T05:00:48.440Z,4.50
2022-08-08T05:03:19.139Z,4.57
2022-08-08T05:06:12.663Z,4.77
2022-08-08T05:08:43.511Z,5.37
2022-08-08T05:11:24.125Z,4.07
2022-08-08T05:14:00.749Z,4.57
2022-08-08T05:16:53.574Z,4.20
2022-08-08T05:20:08.983Z,4.57
2022-08-08T05:22:08.412Z,4.40
2022-08-08T05:24:37.433Z,4.40
2022-08-08T05:27:09.306Z,4.80
2022-08-08T05:29:40.754Z,4.23
2022-08-08T05:32:09.607Z,4.37
2022-08-08T05:34:44.202Z,4.37
2022-08-08T05:37:18.690Z,4.10
2022-08-08T05:39:52.580Z,4.23
2022-08-08T05:42:25.783Z,4.40
2022-08-08T05:45:00.714Z,5.27
2022-08-08T05:47:41.512Z,4.50
2022-08-08T05:50:11.759Z,4.23
2022-08-08T05:52:41.344Z,4.40
2022-08-08T05:55:11.508Z,3.80
2022-08-08T05:58:04.117Z,3.60
2022-08-08T06:00:34.595Z,3.87
2022-08-08T06:03:23.599Z,3.53
2022-08-08T06:05:56.682Z,3.57
2022-08-08T06:08:34.445Z,3.33
2022-08-08T06:11:05.718Z,2.80
2022-08-08T06:13:35.558Z,5.40
2022-08-08T06:16:13.709Z,2.90
2022-08-08T06:18:43.254Z,3.20
2022-08-08T06:21:28.162Z,3.10
2022-08-08T06:24:04.675Z,2.90
2022-08-08T06:26:45.573Z,2.83
2022-08-08T06:29:59.182Z,2.87
2022-08-08T06:32:18.409Z,2.60
2022-08-08T06:34:52.637Z,2.57
2022-08-08T06:37:40.384Z,2.63
2022-08-08T06:40:14.249Z,2.30
2022-08-08T06:42:57.026Z,2.10
2022-08-08T06:45:25.305Z,2.37
2022-08-08T06:48:01.300Z,2.20
2022-08-08T06:50:33.948Z,2.37
2022-08-08T06:53:14.327Z,2.07
2022-08-08T06:55:47.346Z,2.13
2022-08-08T06:58:30.803Z,1.97
2022-08-08T07:01:52.306Z,1.80
2022-08-08T07:04:37.412Z,2.00
2022-08-08T07:06:55.972Z,2.33
2022-08-08T07:09:45.716Z,2.03
2022-08-08T07:12:25.071Z,3.67
2022-08-08T07:15:04.670Z,1.90
2022-08-08T07:17:56.648Z,2.10
2022-08-08T07:20:32.733Z,1.70
2022-08-08T07:23:04.901Z,1.83
2022-08-08T07:25:37.242Z,1.53
2022-08-08T07:28:18.610Z,1.60
2022-08-08T07:30:48.191Z,1.60
2022-08-08T07:33:18.871Z,1.43
2022-08-08T07:35:51.323Z,1.33
2022-08-08T07:38:25.399Z,1.47
2022-08-08T07:40:59.078Z,1.00
2022-08-08T07:43:37.112Z,1.10
2022-08-08T07:46:23.925Z,0.80
2022-08-08T07:48:55.667Z,1.10
2022-08-08T07:51:45.470Z,0.97
2022-08-08T07:54:27.573Z,1.27
2022-08-08T07:57:04.185Z,1.40
2022-08-08T07:59:52.421Z,1.10
2022-08-08T08:02:32.767Z,0.90
2022-08-08T08:05:14.999Z,0.90
2022-08-08T08:07:53.386Z,1.10
2022-08-08T08:10:30.748Z,1.00
2022-08-08T08:13:25.248Z,0.90
2022-08-08T08:16:12.662Z,1.20
2022-08-08T08:18:56.326Z,1.00
2022-08-08T08:21:44.533Z,1.17
2022-08-08T08:24:18.763Z,1.10
2022-08-08T08:26:52.939Z,1.03
2022-08-08T08:29:24.207Z,1.30
2022-08-08T08:31:58.086Z,1.07
2022-08-08T08:34:32.648Z,1.17
2022-08-08T08:37:03.327Z,1.70
2022-08-08T08:40:00.918Z,1.20
2022-08-08T08:42:35.397Z,1.23
2022-08-08T08:45:20.829Z,1.20
2022-08-08T08:47:53.449Z,1.10
2022-08-08T08:50:31.849Z,0.97
2022-08-08T08:53:54.382Z,0.93
2022-08-08T08:56:02.022Z,1.10
2022-08-08T08:58:38.072Z,1.10
2022-08-08T09:01:10.076Z,1.10
2022-08-08T09:03:45.920Z,1.03
2022-08-08T09:06:26.828Z,0.90
2022-08-08T09:09:07.140Z,0.93
2022-08-08T09:11:47.550Z,1.10
2022-08-08T09:14:30.337Z,0.93
2022-08-08T09:16:58.654Z,0.83
2022-08-08T09:21:59.244Z,1.00
2022-08-08T09:22:25.878Z,0.90
2022-08-08T09:24:58.432Z,1.10
2022-08-08T09:27:56.389Z,0.70
2022-08-08T09:30:22.228Z,0.70
2022-08-08T09:33:12.640Z,0.87
2022-08-08T09:35:49.644Z,0.70
2022-08-08T09:38:32.976Z,0.90
2022-08-08T09:41:07.417Z,0.93
2022-08-08T09:44:06.622Z,0.80
2022-08-08T09:46:45.116Z,0.90
2022-08-08T09:49:42.358Z,1.10
2022-08-08T09:52:56.700Z,1.07
2022-08-08T09:55:51.594Z,1.33
2022-08-08T09:58:41.567Z,0.97
2022-08-08T10:01:59.533Z,1.10
2022-08-08T10:04:35.430Z,1.10
2022-08-08T10:07:07.918Z,1.10
2022-08-08T10:09:59.557Z,0.90
2022-08-08T10:12:53.981Z,0.93
2022-08-08T10:15:27.363Z,1.10
2022-08-08T10:18:10.461Z,0.87
2022-08-08T10:20:57.482Z,1.10
2022-08-08T10:23:46.080Z,1.07
2022-08-08T10:26:30.067Z,1.00
2022-08-08T10:29:06.202Z,1.10
2022-08-08T10:31:56.224Z,1.37
2022-08-08T10:34:28.830Z,0.80
2022-08-08T10:36:59.655Z,1.27
2022-08-08T10:39:43.132Z,1.10
2022-08-08T10:42:20.998Z,1.30
2022-08-08T10:44:50.352Z,1.20
2022-08-08T10:47:21.534Z,1.30
2022-08-08T10:50:00.626Z,1.10
2022-08-08T10:52:32.773Z,1.00
2022-08-08T10:55:06.311Z,1.17
2022-08-08T10:57:49.656Z,1.00
2022-08-08T11:00:25.564Z,1.03
2022-08-08T11:02:54.861Z,1.10
2022-08-08T11:05:38.949Z,1.10
2022-08-08T11:08:37.293Z,0.93
2022-08-08T11:11:07.869Z,0.70
2022-08-08T11:13:52.146Z,1.30
2022-08-08T11:16:34.671Z,1.27
2022-08-08T11:19:04.374Z,1.10
2022-08-08T11:21:41.371Z,1.00
2022-08-08T11:24:11.307Z,1.20
2022-08-08T11:26:53.750Z,1.23
2022-08-08T11:29:41.783Z,1.23
2022-08-08T11:32:15.633Z,0.90
2022-08-08T11:35:08.309Z,0.80
2022-08-08T11:38:35.891Z,0.80
2022-08-08T11:40:32.077Z,0.90
2022-08-08T11:43:02.165Z,0.90
2022-08-08T11:45:43.709Z,0.93
2022-08-08T11:48:22.138Z,0.90
2022-08-08T11:50:57.382Z,1.10
2022-08-08T11:53:27.714Z,1.30
2022-08-08T11:56:20.283Z,1.03
2022-08-08T11:58:52.413Z,1.07
2022-08-08T12:01:31.946Z,1.10
2022-08-08T12:04:05.875Z,0.90
2022-08-08T12:06:35.294Z,1.00
2022-08-08T12:09:09.321Z,0.90
2022-08-08T12:11:42.966Z,1.20
2022-08-08T12:14:29.353Z,1.20
2022-08-08T12:16:57.899Z,1.23
2022-08-08T12:19:38.019Z,1.13
2022-08-08T12:22:20.969Z,1.30
2022-08-08T12:24:56.122Z,0.93
2022-08-08T12:27:26.714Z,1.00
2022-08-08T12:29:58.145Z,1.20
2022-08-08T12:32:27.224Z,1.20
2022-08-08T12:35:13.732Z,2.00
2022-08-08T12:37:48.116Z,1.10
2022-08-08T12:40:54.239Z,1.20
2022-08-08T12:43:32.045Z,1.20
2022-08-08T12:46:19.005Z,1.27
2022-08-08T12:49:43.125Z,1.20
2022-08-08T12:51:59.248Z,0.73
2022-08-08T12:54:35.802Z,1.00
2022-08-08T12:57:17.621Z,1.10
2022-08-08T13:00:05.117Z,0.97
2022-08-08T13:02:52.482Z,0.90
2022-08-08T13:05:26.693Z,0.80
2022-08-08T13:08:20.928Z,1.43
2022-08-08T13:10:55.597Z,1.30
2022-08-08T13:13:37.242Z,1.60
2022-08-08T13:16:20.525Z,1.30
2022-08-08T13:18:57.569Z,1.60
2022-08-08T13:21:48.784Z,1.57
2022-08-08T13:24:36.926Z,1.03
2022-08-08T13:27:12.424Z,1.33
2022-08-08T13:29:54.007Z,1.20
2022-08-08T13:32:26.881Z,1.10
2022-08-08T13:34:58.131Z,1.20
2022-08-08T13:38:04.632Z,1.17
2022-08-08T13:40:27.317Z,1.13
2022-08-08T13:42:56.451Z,1.20
2022-08-08T13:45:27.848Z,1.00
2022-08-08T13:48:00.188Z,1.23
2022-08-08T13:50:35.789Z,1.13
2022-08-08T13:53:24.480Z,1.40
2022-08-08T13:56:00.489Z,1.23
2022-08-08T13:58:29.532Z,1.13
2022-08-08T14:00:59.474Z,1.20
2022-08-08T14:03:52.562Z,1.33
2022-08-08T14:06:33.230Z,1.10
2022-08-08T14:09:24.523Z,1.30
2022-08-08T14:11:54.456Z,1.13
2022-08-08T14:14:26.294Z,1.10
2022-08-08T14:17:00.720Z,0.83
2022-08-08T14:19:57.790Z,1.03
2022-08-08T14:22:25.043Z,1.10
2022-08-08T14:24:56.525Z,1.03
2022-08-08T14:27:30.170Z,1.10
2022-08-08T14:30:04.126Z,1.13
2022-08-08T14:32:53.099Z,1.30
2022-08-08T14:35:35.005Z,1.20
2022-08-08T14:38:34.800Z,1.00
2022-08-08T14:40:58.994Z,1.20
2022-08-08T14:44:02.367Z,1.30
2022-08-08T14:46:18.780Z,1.20
2022-08-08T14:49:09.237Z,1.47
2022-08-08T14:51:53.485Z,0.90
2022-08-08T14:54:28.731Z,1.20
2022-08-08T14:56:58.784Z,1.20
2022-08-08T14:59:44.369Z,1.03
2022-08-08T15:02:25.804Z,1.10
2022-08-08T15:05:10.470Z,1.10
2022-08-08T15:07:41.363Z,1.10
2022-08-08T15:10:13.119Z,1.20
2022-08-08T15:12:42.501Z,1.80
2022-08-08T15:15:18.748Z,1.27
2022-08-08T15:18:02.126Z,1.10
2022-08-08T15:20:32.823Z,1.30
2022-08-08T15:23:01.677Z,1.00
2022-08-08T15:25:33.166Z,1.43
2022-08-08T15:28:32.862Z,2.87
2022-08-08T15:30:51.304Z,1.30
2022-08-08T15:33:35.691Z,1.10
2022-08-08T15:36:10.467Z,0.80
2022-08-08T15:38:49.797Z,1.20
2022-08-08T15:41:24.785Z,1.00
2022-08-08T15:44:00.893Z,1.00
2022-08-08T15:46:35.233Z,1.00
2022-08-08T15:49:04.181Z,1.10
2022-08-08T15:51:34.394Z,1.00
2022-08-08T15:54:04.342Z,1.20
2022-08-08T15:56:33.142Z,0.90
2022-08-08T15:59:01.952Z,0.83
2022-08-08T16:01:40.932Z,1.07
2022-08-08T16:04:18.865Z,1.10
2022-08-08T16:06:51.960Z,1.10
2022-08-08T16:13:05.739Z,1.10
2022-08-08T16:13:10.360Z,1.17
2022-08-08T16:14:57.174Z,1.00
2022-08-08T16:17:57.979Z,1.07
2022-08-08T16:20:14.683Z,1.20
2022-08-08T16:22:44.557Z,1.20
2022-08-08T16:25:18.766Z,1.40
2022-08-08T16:27:57.959Z,1.00
2022-08-08T16:30:32.451Z,1.00
2022-08-08T16:33:07.505Z,1.30
2022-08-08T16:35:38.175Z,1.20
2022-08-08T16:38:12.361Z,1.30
2022-08-08T16:40:44.815Z,1.30
2022-08-08T16:43:13.253Z,1.00
2022-08-08T16:46:36.713Z,1.30
2022-08-08T16:48:32.281Z,1.23
2022-08-08T16:51:05.531Z,1.37
2022-08-08T16:55:03.230Z,1.00
2022-08-08T16:56:27.792Z,1.33
2022-08-08T16:58:56.505Z,1.37
2022-08-08T17:01:25.623Z,1.60
2022-08-08T17:04:03.555Z,1.30
2022-08-08T17:06:37.628Z,1.50
2022-08-08T17:09:14.934Z,1.23
2022-08-08T17:11:48.795Z,1.30
2022-08-08T17:14:20.185Z,1.50
2022-08-08T17:16:58.221Z,1.60
2022-08-08T17:19:29.057Z,7.03
2022-08-08T17:22:01.072Z,1.50
2022-08-08T17:24:32.803Z,1.20
2022-08-08T17:27:04.610Z,1.10
2022-08-08T17:29:36.310Z,1.57
2022-08-08T17:32:09.205Z,1.20
2022-08-08T17:35:53.971Z,1.10
2022-08-08T17:37:28.123Z,1.27
2022-08-08T17:40:11.031Z,1.47
2022-08-08T17:42:47.221Z,1.13
2022-08-08T17:45:23.279Z,2.70
2022-08-08T17:47:53.892Z,1.40
2022-08-08T17:50:23.860Z,1.20
2022-08-08T17:52:52.625Z,1.20
2022-08-08T17:56:06.453Z,1.23
2022-08-08T17:58:11.894Z,1.20
2022-08-08T18:00:41.515Z,1.40
2022-08-08T18:03:12.954Z,1.50
2022-08-08T18:05:49.864Z,1.40
2022-08-08T18:08:24.718Z,2.00
2022-08-08T18:11:14.511Z,1.50
2022-08-08T18:13:43.107Z,1.10
2022-08-08T18:16:12.869Z,1.30
2022-08-08T18:18:52.904Z,1.27
2022-08-08T18:21:35.144Z,1.23
2022-08-08T18:24:19.097Z,1.33
2022-08-08T18:26:54.248Z,1.30
2022-08-08T18:29:30.184Z,1.30
2022-08-08T18:32:04.174Z,1.10
2022-08-08T18:34:33.889Z,1.10
2022-08-08T18:37:06.643Z,1.40
2022-08-08T18:39:38.104Z,1.20
2022-08-08T18:42:13.774Z,1.10
2022-08-08T18:44:54.786Z,1.20
2022-08-08T18:47:28.420Z,1.27
2022-08-08T18:50:02.597Z,1.37
2022-08-08T18:52:34.737Z,1.40
2022-08-08T18:55:10.260Z,1.23
2022-08-08T18:57:44.571Z,1.50
2022-08-08T19:00:19.612Z,1.17
2022-08-08T19:02:55.910Z,1.30
2022-08-08T19:05:31.861Z,1.27
2022-08-08T19:08:09.900Z,1.23
2022-08-08T19:10:41.210Z,1.70
2022-08-08T19:13:21.703Z,1.33
2022-08-08T19:15:55.831Z,1.83
2022-08-08T19:18:32.016Z,1.43
2022-08-08T19:21:29.283Z,1.37
2022-08-08T19:24:00.017Z,1.60
2022-08-08T19:26:30.265Z,1.50
2022-08-08T19:29:00.987Z,1.30
2022-08-08T19:31:31.794Z,2.33
2022-08-08T19:34:36.105Z,1.47
2022-08-08T19:36:59.115Z,1.70
2022-08-08T19:39:30.741Z,2.87
2022-08-08T19:42:03.599Z,2.93
2022-08-08T19:44:45.315Z,1.67
2022-08-08T19:47:14.769Z,1.43
2022-08-08T19:50:00.310Z,1.60
2022-08-08T19:52:35.247Z,1.90
2022-08-08T19:55:12.496Z,1.60
2022-08-08T19:57:42.502Z,1.63
2022-08-08T20:00:30.658Z,1.70
2022-08-08T20:03:00.883Z,1.90
2022-08-08T20:06:15.058Z,2.07
2022-08-08T20:08:28.826Z,1.70
2022-08-08T20:11:00.318Z,1.70
2022-08-08T20:14:32.347Z,1.40
2022-08-08T20:16:18.945Z,1.70
2022-08-08T20:18:53.159Z,1.90
2022-08-08T20:21:25.494Z,1.73
2022-08-08T20:23:57.725Z,1.97
2022-08-08T20:26:27.532Z,1.90
2022-08-08T20:29:02.961Z,1.63
2022-08-08T20:31:47.024Z,1.77
2022-08-08T20:34:31.137Z,1.87
2022-08-08T20:37:02.404Z,1.77
2022-08-08T20:39:39.769Z,1.80
2022-08-08T20:42:20.574Z,1.70
2022-08-08T20:44:57.584Z,2.17
2022-08-08T20:47:36.640Z,2.13
2022-08-08T20:50:09.916Z,1.87
2022-08-08T20:52:39.638Z,1.70
2022-08-08T20:55:22.309Z,2.27
2022-08-08T20:57:53.939Z,1.93
2022-08-08T21:00:26.146Z,1.73
2022-08-08T21:02:56.073Z,1.80
2022-08-08T21:05:24.279Z,2.20
2022-08-08T21:08:34.385Z,2.30
2022-08-08T21:10:50.181Z,2.37
2022-08-08T21:13:18.508Z,1.90
2022-08-08T21:16:06.511Z,2.20
2022-08-08T21:18:37.741Z,2.23
2022-08-08T21:21:20.465Z,1.90
2022-08-08T21:24:09.321Z,2.20
2022-08-08T21:26:44.752Z,2.33
2022-08-08T21:29:20.015Z,2.03
2022-08-08T21:31:57.629Z,2.30
2022-08-08T21:34:29.982Z,2.20
2022-08-08T21:36:58.661Z,2.13
2022-08-08T21:39:41.419Z,2.30
2022-08-08T21:42:15.154Z,2.20
2022-08-08T21:44:58.612Z,2.23
2022-08-08T21:48:07.951Z,2.23
2022-08-08T21:50:17.967Z,2.43
2022-08-08T21:54:31.448Z,2.30
2022-08-08T21:56:19.421Z,2.40
2022-08-08T21:58:24.766Z,2.77
2022-08-08T22:01:04.127Z,2.30
2022-08-08T22:03:32.873Z,2.30
2022-08-08T22:06:03.753Z,2.10
2022-08-08T22:08:41.974Z,2.10
2022-08-08T22:11:51.393Z,2.27
2022-08-08T22:13:58.853Z,2.40
2022-08-08T22:16:28.601Z,2.00
2022-08-08T22:18:56.623Z,2.20
2022-08-08T22:21:34.430Z,2.43
2022-08-08T22:24:03.054Z,2.17
2022-08-08T22:26:32.128Z,2.00
2022-08-08T22:29:12.819Z,3.10
2022-08-08T22:31:58.126Z,3.10
2022-08-08T22:34:31.772Z,2.43
2022-08-08T22:37:03.311Z,2.80
2022-08-08T22:39:46.005Z,2.70
2022-08-08T22:42:27.465Z,2.50
2022-08-08T22:45:00.864Z,2.90
2022-08-08T22:47:37.833Z,2.90
2022-08-08T22:50:09.889Z,2.80
2022-08-08T22:54:27.753Z,2.70
2022-08-08T22:55:58.589Z,3.17
2022-08-08T22:58:31.258Z,3.10
2022-08-08T23:01:01.513Z,3.27
2022-08-08T23:03:34.476Z,3.63
2022-08-08T23:06:18.458Z,2.90
2022-08-08T23:08:54.176Z,3.00
2022-08-08T23:11:30.983Z,2.70
2022-08-08T23:14:13.536Z,2.57
2022-08-08T23:16:45.658Z,2.53
2022-08-08T23:19:21.374Z,2.70
2022-08-08T23:21:49.717Z,2.43
2022-08-08T23:24:22.800Z,2.67
2022-08-08T23:26:53.125Z,2.60
2022-08-08T23:29:25.510Z,2.63
2022-08-08T23:31:54.286Z,2.40
2022-08-08T23:34:22.749Z,2.40
2022-08-08T23:36:57.914Z,2.50
2022-08-08T23:39:32.338Z,2.63
2022-08-08T23:42:10.606Z,2.70
2022-08-08T23:44:39.323Z,4.90
2022-08-08T23:49:01.116Z,6.10
2022-08-08T23:50:03.338Z,3.03
2022-08-08T23:52:33.988Z,3.63
2022-08-08T23:55:14.090Z,2.97
2022-08-08T23:57:52.851Z,3.07
